Capitol Logistics 208




KMIA
Miami International Airport
Miami, Florida
KTPA
Tampa International Airport
Tampa, Florida

Activity Log

Date Flight Route Aircraft Duration
05/15/2022 CPX208 BNGOS1 COREA BLFRG1 B752 0h 55m
10/28/2021 CPX208 WINCO2 WINCO CHRRI DEAKK B738 0h 51m
10/25/2021 CPX208 BNGOS1 COREA BLFRG1 B762 0h 59m
06/17/2021 CPX3260 WINCO2 WINCO V97 BRDGE BRDGE8 SF34 1h 28m
03/23/2021 CPX3260 DHP LBV LAL CIBOX BUCCS SF34 1h 03m
04/07/2020 CPX3260 WINCO2 WINCO V97 BRDGE BRDGE8 SF34 1h 30m
11/07/2019 CPX660 WINCO2 WINCO V97 BRDGE BRDGE8 SF34 1h 01m
07/17/2019 CPX660 KMIA WINCO2 WINCO CHRRI DEAKK KTPA SF34 0h 54m

Route Details

Aircraft Information
Group: North America Fleet
Types: B738,B752,B762,B763
Route Data
Demand: V
Distance: 178nm
Duration: 1h 10m
Recm'd Route: WINCO2 WINCO CHRRI DEAKK
Origin Wx: KMIA 242053Z 13010KT 10SM SCT039 SCT250 29/20 A3001 RMK AO2 SLP163 T02940200 56008 $
Dest. Wx: KTPA 242053Z 02003KT 10SM SCT055 BKN085 BKN250 33/19 A2998 RMK AO2 SLP150 CB DSNT S AND NW T03330194 56022
Notes:

Financial History
Total Freight: 154,592lbs
Average Load: 19,324lbs/flt
Fuel Used: 24,827lbs
Avg. Fuel Used: 3,103lbs/flt
Fuel Expense: $12,903
Avg. Fuel Expense: $1,613
Avg. Fuel Cost: $0.79/lbs
Total Gross Income: $322,213
Pilot Pay: $1,432
Total Expenses: $46,789
Total Revenue: $261,192
Average Revenue: $40,276.59